createdAt,value
2022-11-01T00:02:02.365Z,99127.38
2022-11-01T00:04:30.608Z,99141.84
2022-11-01T00:06:58.924Z,99148.97
2022-11-01T00:09:27.209Z,99142.06
2022-11-01T00:11:56.876Z,99149.84
2022-11-01T00:14:25.424Z,99139.25
2022-11-01T00:16:53.590Z,99141.09
2022-11-01T00:19:21.699Z,99145.00
2022-11-01T00:21:50.605Z,99160.03
2022-11-01T00:24:18.806Z,99157.41
2022-11-01T00:26:50.138Z,99159.22
2022-11-01T00:29:19.721Z,99160.50
2022-11-01T00:31:47.780Z,99156.25
2022-11-01T00:34:16.999Z,99154.84
2022-11-01T00:36:45.475Z,99151.63
2022-11-01T00:39:14.992Z,99162.03
2022-11-01T00:41:43.196Z,99155.13
2022-11-01T00:44:11.445Z,99161.22
2022-11-01T00:46:41.064Z,99173.41
2022-11-01T00:49:09.340Z,99174.22
2022-11-01T00:51:37.384Z,99176.88
2022-11-01T00:54:05.863Z,99177.66
2022-11-01T00:56:33.989Z,99182.16
2022-11-01T00:59:02.215Z,99188.91
2022-11-01T01:01:32.411Z,99204.13
2022-11-01T01:04:02.191Z,99195.63
2022-11-01T01:06:30.367Z,99195.06
2022-11-01T01:09:00.629Z,99200.78
2022-11-01T01:11:29.247Z,99193.72
2022-11-01T01:13:57.560Z,99182.78
2022-11-01T01:16:25.747Z,99173.91
2022-11-01T01:18:53.966Z,99172.09
2022-11-01T01:21:23.668Z,99177.59
2022-11-01T01:23:54.963Z,99186.78
2022-11-01T01:26:23.211Z,99187.22
2022-11-01T01:28:54.795Z,99173.63
2022-11-01T01:31:22.669Z,99166.78
2022-11-01T01:33:50.905Z,99178.00
2022-11-01T01:36:19.126Z,99180.44
2022-11-01T01:38:48.614Z,99194.91
2022-11-01T01:41:34.079Z,99188.06
2022-11-01T01:44:03.486Z,99183.00
2022-11-01T01:46:31.632Z,99177.13
2022-11-01T01:49:01.196Z,99167.63
2022-11-01T01:51:30.952Z,99174.09
2022-11-01T01:54:00.880Z,99171.09
2022-11-01T01:56:34.524Z,99167.06
2022-11-01T01:59:06.479Z,99168.28
2022-11-01T02:01:36.614Z,99175.38
2022-11-01T02:04:06.113Z,99175.03
2022-11-01T02:06:36.019Z,99187.41
2022-11-01T02:09:08.466Z,99173.59
2022-11-01T02:11:36.790Z,99178.50
2022-11-01T02:14:05.329Z,99177.69
2022-11-01T02:16:48.319Z,99180.31
2022-11-01T02:20:07.136Z,99185.00
2022-11-01T02:22:55.380Z,99184.41
2022-11-01T02:25:49.648Z,99181.41
2022-11-01T02:28:38.637Z,99167.59
2022-11-01T02:31:29.801Z,99190.53
2022-11-01T02:34:02.023Z,99182.63
2022-11-01T02:36:35.370Z,99197.63
2022-11-01T02:39:10.395Z,99186.28
2022-11-01T02:41:43.705Z,99184.06
2022-11-01T02:44:17.176Z,99186.28
2022-11-01T02:47:02.261Z,99191.22
2022-11-01T02:49:35.393Z,99183.88
2022-11-01T02:52:05.352Z,99191.22
2022-11-01T02:54:35.328Z,99200.34
2022-11-01T02:57:08.298Z,99197.47
2022-11-01T02:59:44.919Z,99206.41
2022-11-01T03:02:19.646Z,99211.50
2022-11-01T03:04:49.790Z,99211.69
2022-11-01T03:07:18.737Z,99202.56
2022-11-01T03:09:47.158Z,99185.50
2022-11-01T03:12:25.755Z,99191.78
2022-11-01T03:15:02.305Z,99198.03
2022-11-01T03:17:41.407Z,99204.50
2022-11-01T03:20:21.049Z,99199.59
2022-11-01T03:22:53.931Z,99189.22
2022-11-01T03:25:40.174Z,99194.28
2022-11-01T03:28:13.129Z,99188.38
2022-11-01T03:30:44.672Z,99190.38
2022-11-01T03:33:14.992Z,99190.75
2022-11-01T03:35:48.826Z,99189.56
2022-11-01T03:38:21.195Z,99195.41
2022-11-01T03:40:54.275Z,99198.66
2022-11-01T03:43:25.532Z,99201.69
2022-11-01T03:45:53.926Z,99210.41
2022-11-01T03:48:22.084Z,99209.78
2022-11-01T03:50:52.595Z,99201.06
2022-11-01T03:53:20.923Z,99214.84
2022-11-01T03:55:49.413Z,99210.13
2022-11-01T03:58:17.871Z,99214.84
2022-11-01T04:00:47.543Z,99213.00
2022-11-01T04:03:15.629Z,99200.84
2022-11-01T04:05:44.293Z,99197.38
2022-11-01T04:08:14.008Z,99193.13
2022-11-01T04:10:44.754Z,99196.78
2022-11-01T04:13:13.781Z,99191.50
2022-11-01T04:16:14.221Z,99179.56
2022-11-01T04:18:59.447Z,99192.97
2022-11-01T04:21:28.048Z,99196.59
2022-11-01T04:23:57.565Z,99201.88
2022-11-01T04:26:25.773Z,99193.16
2022-11-01T04:28:59.654Z,99197.06
2022-11-01T04:31:29.651Z,99191.16
2022-11-01T04:33:58.228Z,99187.94
2022-11-01T04:36:27.464Z,99197.03
2022-11-01T04:38:58.473Z,99207.81
2022-11-01T04:41:28.443Z,99199.91
2022-11-01T04:43:59.174Z,99195.66
2022-11-01T04:46:33.242Z,99198.50
2022-11-01T04:49:01.668Z,99214.31
2022-11-01T04:51:29.907Z,99211.31
2022-11-01T04:54:01.357Z,99211.31
2022-11-01T04:56:29.582Z,99218.22
2022-11-01T04:58:58.401Z,99225.97
2022-11-01T05:01:26.714Z,99216.22
2022-11-01T05:03:55.796Z,99218.44
2022-11-01T05:06:23.903Z,99215.22
2022-11-01T05:08:52.103Z,99210.16
2022-11-01T05:11:25.872Z,99220.34
2022-11-01T05:13:54.347Z,99212.59
2022-11-01T05:16:22.463Z,99208.59
2022-11-01T05:18:50.804Z,99208.59
2022-11-01T05:21:19.166Z,99214.69
2022-11-01T05:23:49.020Z,99206.94
2022-11-01T05:26:17.280Z,99213.06
2022-11-01T05:28:46.837Z,99217.50
2022-11-01T05:31:15.041Z,99226.88
2022-11-01T05:33:43.093Z,99235.19
2022-11-01T05:36:11.359Z,99242.53
2022-11-01T05:38:39.651Z,99237.84
2022-11-01T05:41:07.970Z,99251.66
2022-11-01T05:43:36.183Z,99244.94
2022-11-01T05:46:07.013Z,99250.84
2022-11-01T05:48:35.861Z,99245.19
2022-11-01T05:51:04.031Z,99251.47
2022-11-01T05:53:32.226Z,99241.34
2022-11-01T05:56:01.012Z,99247.44
2022-11-01T05:58:30.785Z,99251.28
2022-11-01T06:00:59.939Z,99250.13
2022-11-01T06:03:29.748Z,99252.53
2022-11-01T06:05:58.483Z,99235.09
2022-11-01T06:08:27.238Z,99243.19
2022-11-01T06:11:02.732Z,99232.88
2022-11-01T06:13:30.817Z,99238.53
2022-11-01T06:16:00.324Z,99238.94
2022-11-01T06:18:30.066Z,99239.97
2022-11-01T06:20:59.452Z,99244.22
2022-11-01T06:23:27.785Z,99242.81
2022-11-01T06:26:01.435Z,99243.81
2022-11-01T06:28:29.865Z,99258.81
2022-11-01T06:31:01.986Z,99271.19
2022-11-01T06:33:31.798Z,99270.41
2022-11-01T06:35:59.958Z,99270.41
2022-11-01T06:38:28.126Z,99268.78
2022-11-01T06:40:56.374Z,99271.81
2022-11-01T06:43:24.674Z,99282.59
2022-11-01T06:45:52.761Z,99280.75
2022-11-01T06:48:20.957Z,99278.91
2022-11-01T06:50:51.528Z,99301.25
2022-11-01T06:53:19.742Z,99311.78
2022-11-01T06:55:47.910Z,99311.16
2022-11-01T06:58:16.257Z,99314.44
2022-11-01T07:00:44.850Z,99313.81
2022-11-01T07:03:15.049Z,99321.31
2022-11-01T07:05:43.654Z,99322.53
2022-11-01T07:08:14.424Z,99320.94
2022-11-01T07:10:44.691Z,99328.84
2022-11-01T07:13:14.388Z,99334.69
2022-11-01T07:15:42.553Z,99336.75
2022-11-01T07:18:10.906Z,99336.94
2022-11-01T07:20:42.580Z,99343.22
2022-11-01T07:23:14.807Z,99349.50
2022-11-01T07:25:43.970Z,99338.56
2022-11-01T07:28:12.475Z,99352.75
2022-11-01T07:30:40.804Z,99364.91
2022-11-01T07:33:08.970Z,99366.09
2022-11-01T07:35:37.466Z,99378.09
2022-11-01T07:38:09.696Z,99385.38
2022-11-01T07:40:42.650Z,99396.72
2022-11-01T07:43:10.802Z,99402.63
2022-11-01T07:45:39.180Z,99403.22
2022-11-01T07:48:10.434Z,99412.72
2022-11-01T07:50:40.052Z,99408.47
2022-11-01T07:53:10.409Z,99412.72
2022-11-01T07:55:39.489Z,99423.28
2022-11-01T07:58:09.972Z,99412.72
2022-11-01T08:00:38.709Z,99417.00
2022-11-01T08:03:08.859Z,99415.56
2022-11-01T08:05:37.665Z,99425.72
2022-11-01T08:08:07.115Z,99433.22
2022-11-01T08:10:36.680Z,99424.50
2022-11-01T08:13:05.960Z,99438.31
2022-11-01T08:15:36.059Z,99451.69
2022-11-01T08:18:05.204Z,99454.13
2022-11-01T08:20:36.364Z,99466.69
2022-11-01T08:23:05.312Z,99475.19
2022-11-01T08:25:34.948Z,99484.53
2022-11-01T08:28:04.036Z,99487.59
2022-11-01T08:30:32.735Z,99488.19
2022-11-01T08:33:04.008Z,99494.69
2022-11-01T08:35:32.509Z,99496.53
2022-11-01T08:38:01.338Z,99498.34
2022-11-01T08:40:30.088Z,99506.03
2022-11-01T08:42:58.732Z,99501.97
2022-11-01T08:45:27.803Z,99511.31
2022-11-01T08:48:00.326Z,99519.03
2022-11-01T08:50:30.183Z,99521.88
2022-11-01T08:52:58.497Z,99521.06
2022-11-01T08:55:26.807Z,99534.69
2022-11-01T08:57:55.063Z,99533.44
2022-11-01T09:00:23.461Z,99531.41
2022-11-01T09:02:51.773Z,99535.47
2022-11-01T09:05:19.995Z,99544.81
2022-11-01T09:07:49.954Z,99542.19
2022-11-01T09:10:18.210Z,99538.53
2022-11-01T09:12:46.342Z,99546.22
2022-11-01T09:15:14.555Z,99552.31
2022-11-01T09:17:42.717Z,99560.03
2022-11-01T09:20:11.268Z,99564.09
2022-11-01T09:22:39.504Z,99567.34
2022-11-01T09:25:09.962Z,99566.50
2022-11-01T09:27:38.143Z,99581.53
2022-11-01T09:30:07.296Z,99579.69
2022-11-01T09:32:35.545Z,99579.91
2022-11-01T09:35:04.117Z,99578.09
2022-11-01T09:37:32.709Z,99580.53
2022-11-01T09:40:00.771Z,99568.53
2022-11-01T09:42:36.142Z,99576.88
2022-11-01T09:45:09.647Z,99578.31
2022-11-01T09:47:38.744Z,99581.53
2022-11-01T09:50:18.651Z,99583.16
2022-11-01T09:52:46.850Z,99582.41
2022-11-01T09:55:17.303Z,99587.47
2022-11-01T09:57:55.177Z,99595.38
2022-11-01T10:00:23.610Z,99590.50
2022-11-01T10:03:25.358Z,99592.13
2022-11-01T10:06:03.615Z,99592.91
2022-11-01T10:08:42.699Z,99588.25
2022-11-01T10:11:39.383Z,99586.84
2022-11-01T10:14:20.265Z,99581.56
2022-11-01T10:16:58.059Z,99581.34
2022-11-01T10:19:30.668Z,99585.41
2022-11-01T10:22:03.304Z,99590.25
2022-11-01T10:24:37.683Z,99590.88
2022-11-01T10:27:12.236Z,99580.72
2022-11-01T10:29:48.604Z,99585.59
2022-11-01T10:32:26.207Z,99594.31
2022-11-01T10:34:56.843Z,99593.28
2022-11-01T10:37:28.550Z,99593.28
2022-11-01T10:40:02.794Z,99594.50
2022-11-01T10:42:34.841Z,99602.44
2022-11-01T10:45:09.017Z,99607.91
2022-11-01T10:47:37.361Z,99615.44
2022-11-01T10:50:14.440Z,99626.59
2022-11-01T10:52:49.264Z,99626.59
2022-11-01T10:55:22.497Z,99638.38
2022-11-01T10:57:56.610Z,99637.56
2022-11-01T11:00:26.248Z,99634.72
2022-11-01T11:02:57.422Z,99634.28
2022-11-01T11:05:27.605Z,99636.53
2022-11-01T11:07:57.560Z,99638.59
2022-11-01T11:10:29.297Z,99642.44
2022-11-01T11:13:01.694Z,99643.06
2022-11-01T11:15:43.374Z,99650.75
2022-11-01T11:18:22.926Z,99659.91
2022-11-01T11:21:00.183Z,99664.97
2022-11-01T11:23:30.630Z,99661.53
2022-11-01T11:26:03.589Z,99665.16
2022-11-01T11:28:35.523Z,99662.72
2022-11-01T11:31:15.567Z,99664.13
2022-11-01T11:33:50.466Z,99663.09
2022-11-01T11:36:20.296Z,99667.72
2022-11-01T11:38:50.088Z,99673.16
2022-11-01T11:41:29.601Z,99665.00
2022-11-01T11:43:57.797Z,99667.41
2022-11-01T11:46:27.721Z,99668.00
2022-11-01T11:48:59.301Z,99667.56
2022-11-01T11:51:28.523Z,99669.97
2022-11-01T11:54:17.361Z,99661.56
2022-11-01T11:56:46.339Z,99654.13
2022-11-01T11:59:23.152Z,99652.03
2022-11-01T12:01:57.243Z,99647.69
2022-11-01T12:04:25.493Z,99653.16
2022-11-01T12:06:54.134Z,99645.09
2022-11-01T12:09:42.853Z,99647.84
2022-11-01T12:12:18.473Z,99639.78
2022-11-01T12:14:46.870Z,99647.03
2022-11-01T12:17:27.828Z,99654.53
2022-11-01T12:20:17.748Z,99666.13
2022-11-01T12:22:51.831Z,99669.53
2022-11-01T12:25:23.394Z,99663.56
2022-11-01T12:27:55.058Z,99669.66
2022-11-01T12:30:26.001Z,99661.50
2022-11-01T12:32:58.936Z,99666.59
2022-11-01T12:35:32.792Z,99661.88
2022-11-01T12:38:18.851Z,99662.28
2022-11-01T12:40:50.128Z,99667.75
2022-11-01T12:43:23.648Z,99665.47
2022-11-01T12:45:57.163Z,99672.19
2022-11-01T12:48:31.646Z,99669.75
2022-11-01T12:51:05.356Z,99667.09
2022-11-01T12:53:40.739Z,99670.56
2022-11-01T12:56:09.160Z,99675.50
2022-11-01T12:58:37.546Z,99682.69
2022-11-01T13:01:21.203Z,99674.00
2022-11-01T13:04:01.607Z,99682.16
2022-11-01T13:06:47.180Z,99670.34
2022-11-01T13:09:25.531Z,99677.84
2022-11-01T13:12:01.590Z,99679.09
2022-11-01T13:14:43.498Z,99682.00
2022-11-01T13:17:20.419Z,99697.16
2022-11-01T13:20:00.646Z,99687.84
2022-11-01T13:22:39.802Z,99683.44
2022-11-01T13:25:18.162Z,99683.09
2022-11-01T13:27:53.472Z,99678.72
2022-11-01T13:30:22.311Z,99686.50
2022-11-01T13:32:59.379Z,99692.66
2022-11-01T13:35:49.331Z,99693.56
2022-11-01T13:38:26.081Z,99694.78
2022-11-01T13:41:04.662Z,99689.50
2022-11-01T13:43:39.903Z,99686.91
2022-11-01T13:46:34.985Z,99679.81
2022-11-01T13:49:43.387Z,99678.41
2022-11-01T13:52:19.882Z,99680.44
2022-11-01T13:54:55.669Z,99679.84
2022-11-01T13:57:27.251Z,99688.38
2022-11-01T13:59:57.198Z,99673.75
2022-11-01T14:02:48.975Z,99685.38
2022-11-01T14:05:17.468Z,99671.34
2022-11-01T14:08:29.887Z,99674.63
2022-11-01T14:10:59.584Z,99674.41
2022-11-01T14:13:33.735Z,99680.34
2022-11-01T14:16:24.122Z,99677.91
2022-11-01T14:19:22.155Z,99676.13
2022-11-01T14:21:54.221Z,99671.84
2022-11-01T14:24:34.899Z,99675.50
2022-11-01T14:27:22.820Z,99677.38
2022-11-01T14:29:54.956Z,99681.44
2022-11-01T14:32:26.308Z,99676.34
2022-11-01T14:35:03.114Z,99680.25
2022-11-01T14:37:38.725Z,99679.59
2022-11-01T14:40:30.592Z,99673.09
2022-11-01T14:43:05.528Z,99677.38
2022-11-01T15:18:17.470Z,99689.66
2022-11-01T15:20:49.842Z,99685.00
2022-11-01T15:23:21.231Z,99688.88
2022-11-01T15:25:53.107Z,99690.94
2022-11-01T15:28:25.156Z,99695.59
2022-11-01T15:30:58.840Z,99696.84
2022-11-01T15:33:31.026Z,99699.66
2022-11-01T15:36:01.119Z,99706.19
2022-11-01T15:38:30.441Z,99704.75
2022-11-01T15:40:58.611Z,99706.81
2022-11-01T15:43:28.163Z,99709.28
2022-11-01T15:45:59.776Z,99718.63
2022-11-01T15:48:31.033Z,99714.13
2022-11-01T15:51:03.307Z,99723.31
2022-11-01T15:53:35.062Z,99724.94
2022-11-01T15:56:07.655Z,99730.00
2022-11-01T15:58:39.559Z,99732.44
2022-11-01T16:01:14.419Z,99734.88
2022-11-01T16:03:49.733Z,99738.97
2022-11-01T16:06:23.079Z,99737.13
2022-11-01T16:08:55.040Z,99745.66
2022-11-01T16:11:27.533Z,99754.81
2022-11-01T16:14:00.157Z,99761.53
2022-11-01T16:16:28.514Z,99771.28
2022-11-01T16:18:58.228Z,99769.03
2022-11-01T16:21:30.933Z,99781.03
2022-11-01T16:24:06.838Z,99776.97
2022-11-01T16:26:56.023Z,99783.88
2022-11-01T16:29:42.653Z,99778.00
2022-11-01T16:32:20.381Z,99786.94
2022-11-01T16:34:50.156Z,99791.59
2022-11-01T16:37:21.360Z,99794.22
2022-11-01T16:39:49.469Z,99799.94
2022-11-01T16:42:18.533Z,99805.03
2022-11-01T16:44:47.442Z,99814.16
2022-11-01T16:47:17.591Z,99815.38
2022-11-01T16:49:51.939Z,99807.03
2022-11-01T16:52:20.582Z,99830.19
2022-11-01T16:54:51.122Z,99832.00
2022-11-01T16:57:25.995Z,99825.31
2022-11-01T16:59:55.791Z,99842.16
2022-11-01T17:02:27.132Z,99853.94
2022-11-01T17:05:04.441Z,99856.59
2022-11-01T17:07:32.523Z,99864.72
2022-11-01T17:10:00.790Z,99873.03
2022-11-01T17:12:29.018Z,99869.78
2022-11-01T17:14:57.220Z,99872.41
2022-11-01T17:17:27.596Z,99873.63
2022-11-01T17:20:04.258Z,99876.84
2022-11-01T17:22:36.298Z,99877.44
2022-11-01T17:25:06.218Z,99885.38
2022-11-01T17:27:34.463Z,99883.75
2022-11-01T17:30:02.698Z,99889.03
2022-11-01T17:32:31.060Z,99896.13
2022-11-01T17:35:00.639Z,99886.75
2022-11-01T17:37:32.416Z,99890.63
2022-11-01T17:40:02.054Z,99900.38
2022-11-01T17:42:30.410Z,99895.09
2022-11-01T17:44:58.545Z,99900.97
2022-11-01T17:47:27.013Z,99905.66
2022-11-01T17:49:55.124Z,99904.00
2022-11-01T17:52:24.647Z,99902.59
2022-11-01T17:54:52.737Z,99916.59
2022-11-01T17:57:20.836Z,99911.53
2022-11-01T17:59:49.026Z,99924.91
2022-11-01T18:02:17.336Z,99924.28
2022-11-01T18:04:45.463Z,99933.19
2022-11-01T18:07:13.982Z,99934.38
2022-11-01T18:09:43.605Z,99942.50
2022-11-01T18:12:18.191Z,99954.91
2022-11-01T18:14:55.941Z,99951.38
2022-11-01T18:17:39.045Z,99956.22
2022-11-01T18:20:16.592Z,99972.06
2022-11-01T18:22:52.584Z,99967.00
2022-11-01T18:25:32.667Z,99972.84
2022-11-01T18:28:02.538Z,99968.13
2022-11-01T18:30:31.549Z,99974.81
2022-11-01T18:33:05.328Z,99975.59
2022-11-01T18:35:39.549Z,99988.13
2022-11-01T18:38:17.967Z,99988.53
2022-11-01T18:40:59.343Z,99995.19
2022-11-01T18:43:29.943Z,100000.28
2022-11-01T18:46:23.265Z,99999.66
2022-11-01T18:48:46.416Z,100008.75
2022-11-01T18:51:20.891Z,100009.31
2022-11-01T18:53:54.342Z,100023.06
2022-11-01T18:56:25.770Z,100029.13
2022-11-01T18:58:54.571Z,100032.06
2022-11-01T19:01:32.509Z,100030.44
2022-11-01T19:04:07.842Z,100028.16
2022-11-01T19:06:36.062Z,100036.84
2022-11-01T19:09:17.755Z,100042.28
2022-11-01T19:11:47.038Z,100050.13
2022-11-01T19:14:23.205Z,100044.50
2022-11-01T19:16:51.940Z,100050.13
2022-11-01T19:19:21.668Z,100054.13
2022-11-01T19:21:49.969Z,100048.66
2022-11-01T19:24:31.334Z,100041.97
2022-11-01T19:27:02.445Z,100046.22
2022-11-01T19:29:35.212Z,100046.03
2022-11-01T19:32:05.370Z,100049.66
2022-11-01T19:34:37.239Z,100064.22
2022-11-01T19:37:17.148Z,100056.88
2022-11-01T19:39:45.805Z,100044.69
2022-11-01T19:42:25.192Z,100047.72
2022-11-01T19:44:57.714Z,100046.63
2022-11-01T19:47:39.873Z,100036.84
2022-11-01T19:50:22.050Z,100036.03
2022-11-01T19:52:52.288Z,100032.13
2022-11-01T19:55:37.147Z,100041.03
2022-11-01T19:58:25.104Z,100043.22
2022-11-01T20:01:03.364Z,100052.56
2022-11-01T20:03:39.486Z,100049.13
2022-11-01T20:06:15.951Z,100056.19
2022-11-01T20:08:45.312Z,100059.56
2022-11-01T20:11:13.783Z,100059.28
2022-11-01T20:13:43.472Z,100066.38
2022-11-01T20:16:12.228Z,100074.00
2022-11-01T20:18:41.350Z,100061.19
2022-11-01T20:21:10.248Z,100078.19
2022-11-01T20:23:39.075Z,100076.94
2022-11-01T20:26:07.650Z,100082.06
2022-11-01T20:28:37.895Z,100088.97
2022-11-01T20:31:07.737Z,100099.03
2022-11-01T20:33:36.043Z,100089.31
2022-11-01T20:36:10.802Z,100101.03
2022-11-01T20:38:39.913Z,100106.66
2022-11-01T20:41:09.325Z,100104.03
2022-11-01T20:43:38.083Z,100107.00
2022-11-01T20:46:08.072Z,100108.47
2022-11-01T20:48:36.308Z,100118.34
2022-11-01T20:51:04.552Z,100131.53
2022-11-01T20:53:33.213Z,100130.44
2022-11-01T20:56:01.857Z,100146.41
2022-11-01T20:58:30.637Z,100150.19
2022-11-01T21:00:58.949Z,100153.84
2022-11-01T21:03:29.213Z,100160.91
2022-11-01T21:05:57.345Z,100165.72
2022-11-01T21:08:28.170Z,100161.44
2022-11-01T21:10:58.875Z,100165.78
2022-11-01T21:13:30.544Z,100179.28
2022-11-01T21:16:00.824Z,100198.53
2022-11-01T21:18:34.395Z,100197.34
2022-11-01T21:21:31.723Z,100195.19
2022-11-01T21:24:02.474Z,100194.56
2022-11-01T21:26:33.046Z,100201.94
2022-11-01T21:29:06.645Z,100203.56
2022-11-01T21:31:35.905Z,100213.28
2022-11-01T21:34:30.998Z,100216.44
2022-11-01T21:37:01.049Z,100217.94
2022-11-01T21:39:33.427Z,100219.09
2022-11-01T21:42:05.464Z,100223.75
2022-11-01T21:44:40.217Z,100229.00
2022-11-01T21:47:19.264Z,100229.97
2022-11-01T21:49:48.895Z,100244.59
2022-11-01T21:52:19.426Z,100236.72
2022-11-01T21:54:48.529Z,100241.34
2022-11-01T21:57:17.954Z,100258.91
2022-11-01T21:59:46.286Z,100265.19
2022-11-01T22:02:15.843Z,100263.53
2022-11-01T22:04:46.299Z,100270.81
2022-11-01T22:07:15.827Z,100272.44
2022-11-01T22:09:44.057Z,100289.84
2022-11-01T22:12:12.256Z,100269.16
2022-11-01T22:14:40.454Z,100278.22
2022-11-01T22:17:08.792Z,100279.22
2022-11-01T22:19:37.001Z,100292.53
2022-11-01T22:22:05.161Z,100294.53
2022-11-01T22:24:34.751Z,100300.94
2022-11-01T22:27:05.217Z,100298.31
2022-11-01T22:29:33.381Z,100295.66
2022-11-01T22:32:01.681Z,100296.50
2022-11-01T22:34:29.951Z,100303.41
2022-11-01T22:36:58.258Z,100305.19
2022-11-01T22:39:28.851Z,100299.28
2022-11-01T22:41:58.407Z,100307.38
2022-11-01T22:44:28.533Z,100302.44
2022-11-01T22:46:59.648Z,100314.16
2022-11-01T22:49:30.248Z,100307.22
2022-11-01T22:52:03.597Z,100314.97
2022-11-01T22:54:40.168Z,100322.19
2022-11-01T22:57:16.848Z,100318.09
2022-11-01T22:59:47.716Z,100323.38
2022-11-01T23:02:34.897Z,100323.88
2022-11-01T23:05:25.632Z,100344.41
2022-11-01T23:07:55.299Z,100347.69
2022-11-01T23:10:31.972Z,100345.88
2022-11-01T23:13:25.866Z,100354.28
2022-11-01T23:16:02.914Z,100351.34
2022-11-01T23:18:33.226Z,100359.41
2022-11-01T23:21:03.355Z,100354.16
2022-11-01T23:23:31.647Z,100361.38
2022-11-01T23:26:02.772Z,100366.66
2022-11-01T23:28:35.129Z,100371.09
2022-11-01T23:31:04.802Z,100387.00
2022-11-01T23:33:37.643Z,100380.44
2022-11-01T23:36:06.473Z,100379.81
2022-11-01T23:38:37.324Z,100400.16
2022-11-01T23:41:05.898Z,100398.38
2022-11-01T23:43:39.035Z,100397.91
2022-11-01T23:46:07.790Z,100405.59
2022-11-01T23:48:41.593Z,100403.16
2022-11-01T23:51:16.269Z,100410.38
2022-11-01T23:53:46.423Z,100411.34
2022-11-01T23:56:19.664Z,100417.44
2022-11-01T23:58:54.948Z,100420.88
